createdAt,value
2023-04-15T00:01:19.042Z,87.86
2023-04-15T00:03:47.761Z,88.06
2023-04-15T00:06:15.957Z,86.46
2023-04-15T00:08:43.862Z,86.35
2023-04-15T00:11:12.623Z,87.21
2023-04-15T00:13:40.997Z,86.76
2023-04-15T00:16:10.335Z,86.03
2023-04-15T00:18:39.773Z,84.61
2023-04-15T00:21:08.091Z,86.14
2023-04-15T00:23:36.956Z,86.68
2023-04-15T00:26:04.923Z,85.51
2023-04-15T00:28:33.719Z,85.24
2023-04-15T00:31:01.665Z,86.25
2023-04-15T00:33:29.652Z,86.52
2023-04-15T00:35:59.024Z,86.74
2023-04-15T00:38:26.980Z,86.36
2023-04-15T00:40:55.217Z,86.51
2023-04-15T00:43:23.172Z,86.21
2023-04-15T00:45:54.730Z,86.34
2023-04-15T00:48:23.169Z,85.90
2023-04-15T00:50:51.060Z,85.75
2023-04-15T00:53:20.553Z,86.89
2023-04-15T00:55:48.472Z,86.71
2023-04-15T00:58:16.856Z,86.49
2023-04-15T01:00:44.824Z,86.61
2023-04-15T01:03:13.007Z,86.29
2023-04-15T01:05:41.380Z,85.57
2023-04-15T01:08:09.891Z,85.87
2023-04-15T01:10:39.511Z,83.71
2023-04-15T01:13:07.443Z,84.69
2023-04-15T01:15:37.341Z,84.36
2023-04-15T01:18:05.830Z,84.50
2023-04-15T01:20:34.056Z,84.45
2023-04-15T01:23:02.312Z,81.60
2023-04-15T01:25:35.174Z,83.73
2023-04-15T01:28:03.347Z,83.13
2023-04-15T01:30:35.905Z,84.74
2023-04-15T01:33:04.114Z,85.05
2023-04-15T01:35:32.263Z,85.32
2023-04-15T01:38:06.214Z,86.10
2023-04-15T01:40:35.424Z,87.12
2023-04-15T01:43:03.875Z,87.76
2023-04-15T01:45:31.867Z,87.33
2023-04-15T01:47:59.834Z,87.49
2023-04-15T01:50:28.407Z,88.39
2023-04-15T01:52:56.301Z,88.22
2023-04-15T01:55:24.448Z,89.10
2023-04-15T01:57:53.721Z,88.56
2023-04-15T02:00:22.464Z,89.80
2023-04-15T02:02:50.687Z,90.10
2023-04-15T02:05:18.836Z,89.98
2023-04-15T02:07:46.797Z,90.20
2023-04-15T02:10:15.070Z,90.68
2023-04-15T02:12:42.908Z,90.77
2023-04-15T02:15:12.665Z,91.40
2023-04-15T02:17:40.810Z,91.15
2023-04-15T02:20:10.687Z,91.55
2023-04-15T02:22:38.852Z,91.44
2023-04-15T02:25:08.384Z,90.55
2023-04-15T02:27:37.497Z,91.14
2023-04-15T02:30:06.051Z,91.64
2023-04-15T02:32:35.407Z,90.87
2023-04-15T02:35:08.060Z,91.60
2023-04-15T02:37:41.709Z,92.48
2023-04-15T02:40:11.969Z,91.40
2023-04-15T02:42:40.315Z,91.23
2023-04-15T02:45:09.406Z,92.47
2023-04-15T02:47:41.474Z,91.21
2023-04-15T02:50:12.802Z,91.46
2023-04-15T02:52:41.701Z,93.16
2023-04-15T02:55:10.583Z,91.72
2023-04-15T02:57:39.301Z,93.15
2023-04-15T03:00:09.894Z,93.53
2023-04-15T03:02:41.115Z,93.79
2023-04-15T03:05:13.346Z,94.25
2023-04-15T03:07:41.609Z,94.18
2023-04-15T03:10:10.553Z,94.41
2023-04-15T03:12:38.456Z,93.93
2023-04-15T03:15:07.335Z,93.75
2023-04-15T03:17:35.296Z,92.86
2023-04-15T03:20:05.953Z,92.89
2023-04-15T03:22:34.524Z,93.38
2023-04-15T03:25:02.525Z,92.21
2023-04-15T03:27:30.422Z,92.51
2023-04-15T03:29:58.377Z,92.81
2023-04-15T03:32:27.260Z,93.71
2023-04-15T03:34:55.200Z,92.96
2023-04-15T03:37:24.581Z,93.52
2023-04-15T03:39:52.511Z,93.01
2023-04-15T03:42:20.490Z,92.69
2023-04-15T03:44:48.613Z,92.86
2023-04-15T03:47:16.549Z,94.20
2023-04-15T03:49:44.529Z,93.17
2023-04-15T03:52:12.464Z,93.97
2023-04-15T03:54:42.008Z,95.13
2023-04-15T03:57:10.044Z,95.02
2023-04-15T03:59:37.948Z,95.73
2023-04-15T04:02:05.923Z,96.43
2023-04-15T04:04:33.955Z,96.39
2023-04-15T04:07:01.957Z,95.41
2023-04-15T04:09:29.971Z,94.96
2023-04-15T04:11:59.281Z,95.16
2023-04-15T04:14:29.886Z,95.86
2023-04-15T04:17:00.913Z,98.56
2023-04-15T04:19:30.060Z,98.21
2023-04-15T04:21:57.947Z,97.17
2023-04-15T04:24:25.917Z,97.55
2023-04-15T04:26:53.814Z,97.29
2023-04-15T04:29:23.173Z,97.17
2023-04-15T04:31:51.207Z,98.34
2023-04-15T04:34:19.190Z,99.50
2023-04-15T04:36:47.103Z,99.01
2023-04-15T04:39:15.032Z,98.68
2023-04-15T04:41:42.913Z,97.07
2023-04-15T04:44:10.848Z,97.62
2023-04-15T04:46:40.150Z,98.16
2023-04-15T04:49:08.083Z,98.84
2023-04-15T04:51:36.187Z,99.31
2023-04-15T04:54:04.366Z,98.44
2023-04-15T04:56:32.336Z,96.19
2023-04-15T04:59:00.535Z,95.51
2023-04-15T05:01:28.662Z,95.25
2023-04-15T05:03:58.243Z,100.00
2023-04-15T05:06:26.393Z,99.29
2023-04-15T05:08:54.301Z,96.06
2023-04-15T05:11:22.176Z,96.08
2023-04-15T05:13:50.132Z,97.89
2023-04-15T05:16:18.549Z,97.66
2023-04-15T05:18:46.554Z,97.08
2023-04-15T05:21:15.952Z,98.05
2023-04-15T05:23:43.904Z,98.40
2023-04-15T05:26:12.045Z,99.11
2023-04-15T05:28:40.015Z,98.28
2023-04-15T05:31:08.774Z,99.51
2023-04-15T05:33:36.917Z,99.99
2023-04-15T05:36:05.140Z,99.20
2023-04-15T05:38:35.981Z,98.75
2023-04-15T05:41:03.896Z,99.55
2023-04-15T05:43:31.914Z,100.00
2023-04-15T05:45:59.864Z,100.00
2023-04-15T05:48:27.795Z,100.00
2023-04-15T05:50:55.793Z,100.00
2023-04-15T05:53:23.741Z,100.00
2023-04-15T05:55:53.024Z,100.00
2023-04-15T05:58:20.975Z,100.00
2023-04-15T06:00:48.945Z,100.00
2023-04-15T06:03:17.468Z,100.00
2023-04-15T06:05:45.709Z,100.00
2023-04-15T06:08:13.954Z,100.00
2023-04-15T06:10:41.927Z,100.00
2023-04-15T06:13:11.231Z,100.00
2023-04-15T06:15:39.168Z,100.00
2023-04-15T06:18:07.083Z,100.00
2023-04-15T06:20:35.204Z,100.00
2023-04-15T06:23:03.109Z,100.00
2023-04-15T06:25:31.006Z,100.00
2023-04-15T06:27:58.936Z,100.00
2023-04-15T06:30:28.278Z,100.00
2023-04-15T06:32:56.798Z,100.00
2023-04-15T06:35:24.730Z,100.00
2023-04-15T06:37:52.739Z,100.00
2023-04-15T06:40:20.654Z,100.00
2023-04-15T06:42:48.668Z,98.91
2023-04-15T06:45:17.217Z,100.00
2023-04-15T06:47:46.751Z,98.32
2023-04-15T06:50:14.690Z,97.27
2023-04-15T06:52:42.614Z,96.60
2023-04-15T06:55:11.512Z,91.55
2023-04-15T06:57:39.441Z,91.64
2023-04-15T07:00:08.700Z,91.40
2023-04-15T07:02:36.829Z,91.60
2023-04-15T07:05:08.483Z,93.13
2023-04-15T07:07:36.840Z,91.74
2023-04-15T07:10:05.625Z,91.47
2023-04-15T07:12:33.530Z,90.65
2023-04-15T07:15:01.443Z,89.51
2023-04-15T07:17:29.309Z,91.67
2023-04-15T07:19:57.264Z,91.90
2023-04-15T07:22:26.618Z,91.00
2023-04-15T07:24:54.619Z,91.21
2023-04-15T07:27:22.552Z,90.91
2023-04-15T07:29:52.167Z,94.20
2023-04-15T07:32:20.262Z,94.20
2023-04-15T07:34:48.282Z,91.62
2023-04-15T07:37:16.549Z,94.84
2023-04-15T07:39:45.850Z,97.17
2023-04-15T07:42:13.787Z,95.31
2023-04-15T07:44:42.098Z,91.08
2023-04-15T07:47:10.008Z,92.95
2023-04-15T07:49:38.717Z,90.71
2023-04-15T07:52:07.481Z,89.82
2023-04-15T07:54:35.601Z,88.84
2023-04-15T07:57:05.065Z,88.81
2023-04-15T07:59:33.596Z,88.57
2023-04-15T08:02:01.631Z,89.15
2023-04-15T08:04:29.693Z,88.01
2023-04-15T08:06:58.080Z,87.23
2023-04-15T08:09:27.090Z,87.96
2023-04-15T08:11:55.026Z,85.92
2023-04-15T08:14:25.540Z,86.83
2023-04-15T08:16:53.505Z,87.71
2023-04-15T08:19:21.591Z,87.63
2023-04-15T08:21:49.849Z,88.39
2023-04-15T08:24:17.811Z,87.44
2023-04-15T08:26:46.951Z,87.46
2023-04-15T08:29:14.991Z,87.96
2023-04-15T08:31:44.975Z,88.87
2023-04-15T08:34:13.301Z,88.13
2023-04-15T08:36:41.211Z,89.51
2023-04-15T08:39:09.325Z,88.56
2023-04-15T08:41:41.926Z,87.24
2023-04-15T08:44:11.014Z,88.89
2023-04-15T08:46:39.664Z,89.59
2023-04-15T08:49:12.166Z,89.54
2023-04-15T08:51:41.186Z,89.34
2023-04-15T08:54:10.084Z,91.60
2023-04-15T08:56:38.167Z,89.68
2023-04-15T08:59:07.283Z,90.28
2023-04-15T09:01:36.007Z,90.21
2023-04-15T09:04:06.797Z,87.81
2023-04-15T09:06:36.432Z,87.31
2023-04-15T09:09:04.412Z,85.91
2023-04-15T09:11:32.517Z,85.28
2023-04-15T09:14:00.450Z,86.36
2023-04-15T09:16:28.955Z,87.44
2023-04-15T09:18:57.125Z,85.98
2023-04-15T09:21:29.744Z,87.15
2023-04-15T09:24:01.166Z,88.42
2023-04-15T09:26:34.565Z,86.08
2023-04-15T09:29:07.947Z,87.62
2023-04-15T09:31:36.890Z,88.07
2023-04-15T09:34:08.877Z,90.91
2023-04-15T09:36:55.559Z,89.87
2023-04-15T09:39:26.065Z,88.50
2023-04-15T09:42:08.308Z,86.52
2023-04-15T09:44:36.849Z,82.80
2023-04-15T09:47:04.990Z,81.56
2023-04-15T09:49:33.275Z,81.84
2023-04-15T09:52:06.303Z,81.04
2023-04-15T09:54:38.335Z,79.63
2023-04-15T09:57:08.340Z,78.98
2023-04-15T09:59:36.783Z,79.29
2023-04-15T10:02:07.622Z,78.93
2023-04-15T10:04:41.058Z,78.10
2023-04-15T10:07:11.293Z,79.59
2023-04-15T10:09:40.923Z,78.34
2023-04-15T10:12:09.836Z,77.92
2023-04-15T10:14:39.995Z,76.13
2023-04-15T10:17:12.276Z,75.82
2023-04-15T10:19:40.659Z,77.00
2023-04-15T10:22:15.386Z,77.42
2023-04-15T10:24:47.370Z,76.40
2023-04-15T10:27:16.262Z,77.35
2023-04-15T10:29:44.567Z,77.63
2023-04-15T10:32:12.871Z,78.64
2023-04-15T10:34:41.806Z,79.71
2023-04-15T10:37:12.167Z,78.12
2023-04-15T10:39:42.994Z,76.41
2023-04-15T10:42:15.364Z,75.68
2023-04-15T10:44:45.366Z,72.99
2023-04-15T10:47:14.629Z,72.13
2023-04-15T10:49:47.155Z,72.08
2023-04-15T10:52:16.952Z,72.73
2023-04-15T10:54:45.640Z,72.02
2023-04-15T10:57:23.668Z,71.04
2023-04-15T11:00:04.818Z,71.74
2023-04-15T11:02:44.409Z,72.87
2023-04-15T11:05:13.499Z,74.93
2023-04-15T11:07:48.640Z,73.95
2023-04-15T11:10:55.556Z,72.21
2023-04-15T11:13:28.338Z,71.83
2023-04-15T11:16:01.808Z,69.69
2023-04-15T11:18:36.499Z,68.00
2023-04-15T11:21:07.090Z,68.38
2023-04-15T11:23:37.348Z,68.31
2023-04-15T11:26:09.844Z,67.55
2023-04-15T11:28:41.100Z,67.43
2023-04-15T11:31:11.394Z,67.00
2023-04-15T11:33:45.858Z,69.53
2023-04-15T11:36:13.883Z,67.40
2023-04-15T11:38:45.248Z,67.10
2023-04-15T11:41:13.389Z,68.04
2023-04-15T11:43:43.934Z,66.13
2023-04-15T11:46:11.907Z,63.90
2023-04-15T11:48:44.731Z,64.47
2023-04-15T11:51:13.141Z,63.31
2023-04-15T11:53:44.241Z,64.65
2023-04-15T11:56:17.693Z,65.62
2023-04-15T11:58:47.397Z,65.05
2023-04-15T12:01:15.354Z,65.33
2023-04-15T12:03:45.070Z,64.89
2023-04-15T12:06:16.965Z,63.62
2023-04-15T12:09:01.904Z,63.81
2023-04-15T12:11:38.455Z,64.65
2023-04-15T12:14:13.546Z,64.73
2023-04-15T12:16:49.011Z,66.87
2023-04-15T12:19:22.286Z,68.33
2023-04-15T12:21:50.460Z,67.89
2023-04-15T12:24:23.092Z,65.48
2023-04-15T12:26:52.727Z,66.64
2023-04-15T12:29:27.165Z,67.40
2023-04-15T12:31:57.242Z,69.62
2023-04-15T12:34:30.119Z,71.30
2023-04-15T12:36:59.193Z,71.91
2023-04-15T12:39:30.510Z,71.87
2023-04-15T12:41:58.816Z,72.32
2023-04-15T12:44:28.610Z,73.43
2023-04-15T12:46:57.644Z,71.39
2023-04-15T12:49:25.943Z,70.75
2023-04-15T12:51:56.062Z,71.60
2023-04-15T12:54:24.028Z,69.49
2023-04-15T12:56:52.832Z,69.52
2023-04-15T12:59:21.213Z,70.04
2023-04-15T13:01:51.014Z,68.47
2023-04-15T13:04:19.269Z,67.93
2023-04-15T13:06:47.300Z,69.54
2023-04-15T13:09:15.811Z,68.81
2023-04-15T13:11:43.910Z,69.78
2023-04-15T13:14:13.113Z,72.51
2023-04-15T13:16:41.753Z,71.22
2023-04-15T13:19:11.170Z,70.78
2023-04-15T13:21:39.088Z,71.48
2023-04-15T13:24:08.331Z,69.63
2023-04-15T13:26:36.469Z,70.21
2023-04-15T13:29:04.642Z,69.52
2023-04-15T13:31:32.642Z,69.57
2023-04-15T13:34:00.667Z,69.77
2023-04-15T13:36:29.973Z,69.04
2023-04-15T13:38:58.562Z,66.58
2023-04-15T13:41:26.495Z,67.00
2023-04-15T13:43:54.422Z,65.91
2023-04-15T13:46:22.406Z,65.53
2023-04-15T13:48:50.423Z,62.00
2023-04-15T13:51:18.426Z,62.62
2023-04-15T13:53:47.729Z,62.22
2023-04-15T13:56:15.682Z,62.86
2023-04-15T13:58:43.612Z,63.27
2023-04-15T14:01:11.958Z,62.13
2023-04-15T14:03:40.107Z,60.90
2023-04-15T14:06:08.294Z,61.49
2023-04-15T14:08:36.353Z,61.33
2023-04-15T14:11:05.801Z,59.22
2023-04-15T14:13:33.728Z,59.69
2023-04-15T14:16:01.745Z,60.60
2023-04-15T14:18:29.992Z,61.61
2023-04-15T14:20:58.167Z,62.70
2023-04-15T14:23:26.140Z,61.36
2023-04-15T14:25:54.644Z,59.93
2023-04-15T14:28:23.959Z,59.45
2023-04-15T14:30:51.916Z,60.26
2023-04-15T14:33:20.034Z,60.56
2023-04-15T14:35:49.478Z,59.96
2023-04-15T14:38:17.460Z,60.06
2023-04-15T14:40:46.326Z,61.12
2023-04-15T14:43:14.897Z,61.86
2023-04-15T14:45:45.428Z,61.62
2023-04-15T14:48:13.778Z,61.38
2023-04-15T14:50:41.893Z,61.28
2023-04-15T14:53:10.865Z,61.27
2023-04-15T14:55:38.808Z,59.09
2023-04-15T14:58:08.287Z,60.35
2023-04-15T15:00:39.337Z,64.20
2023-04-15T15:03:13.744Z,63.28
2023-04-15T15:05:42.575Z,60.39
2023-04-15T15:08:11.482Z,58.25
2023-04-15T15:10:49.441Z,57.77
2023-04-15T15:13:18.898Z,57.89
2023-04-15T15:18:19.256Z,59.03
2023-04-15T15:20:47.596Z,58.94
2023-04-15T15:23:15.547Z,58.07
2023-04-15T15:25:43.544Z,59.15
2023-04-15T15:28:11.622Z,59.73
2023-04-15T15:30:39.528Z,60.63
2023-04-15T15:33:07.482Z,61.04
2023-04-15T15:35:36.851Z,60.08
2023-04-15T15:38:04.782Z,61.26
2023-04-15T15:40:32.713Z,60.67
2023-04-15T15:43:00.773Z,60.69
2023-04-15T15:45:28.969Z,59.99
2023-04-15T15:47:58.496Z,59.83
2023-04-15T15:50:26.436Z,59.31
2023-04-15T15:52:56.329Z,60.97
2023-04-15T15:55:25.532Z,61.52
2023-04-15T15:57:53.428Z,62.71
2023-04-15T16:00:21.397Z,60.58
2023-04-15T16:03:05.908Z,61.37
2023-04-15T16:05:34.438Z,63.42
2023-04-15T16:08:03.805Z,63.40
2023-04-15T16:10:31.774Z,62.81
2023-04-15T16:12:59.729Z,62.59
2023-04-15T16:15:27.965Z,62.99
2023-04-15T16:17:56.069Z,62.87
2023-04-15T16:20:24.048Z,63.80
2023-04-15T16:22:52.081Z,63.97
2023-04-15T16:25:21.502Z,65.02
2023-04-15T16:28:00.747Z,64.94
2023-04-15T16:30:36.154Z,64.86
2023-04-15T16:33:04.308Z,65.63
2023-04-15T16:35:34.432Z,66.62
2023-04-15T16:38:03.341Z,67.68
2023-04-15T16:40:32.969Z,68.28
2023-04-15T16:43:00.959Z,66.61
2023-04-15T16:45:28.866Z,66.17
2023-04-15T16:47:57.836Z,65.73
2023-04-15T16:50:25.990Z,66.60
2023-04-15T16:52:54.137Z,67.58
2023-04-15T16:55:22.032Z,68.50
2023-04-15T16:58:01.172Z,68.90
2023-04-15T17:00:31.214Z,68.87
2023-04-15T17:02:59.630Z,69.77
2023-04-15T17:05:27.994Z,70.09
2023-04-15T17:07:55.951Z,69.54
2023-04-15T17:10:24.264Z,70.11
2023-04-15T17:12:53.666Z,70.49
2023-04-15T17:15:21.599Z,69.80
2023-04-15T17:17:49.708Z,70.05
2023-04-15T17:20:18.491Z,69.79
2023-04-15T17:22:47.083Z,70.44
2023-04-15T17:25:15.742Z,68.95
2023-04-15T17:27:43.683Z,70.12
2023-04-15T17:30:13.332Z,70.97
2023-04-15T17:32:41.309Z,70.77
2023-04-15T17:35:09.892Z,70.88
2023-04-15T17:37:38.642Z,70.92
2023-04-15T17:40:08.738Z,71.34
2023-04-15T17:42:39.613Z,73.17
2023-04-15T17:45:08.626Z,73.98
2023-04-15T17:47:41.997Z,73.96
2023-04-15T17:50:10.370Z,73.79
2023-04-15T17:52:38.272Z,75.08
2023-04-15T17:55:07.553Z,75.27
2023-04-15T17:57:36.274Z,74.80
2023-04-15T18:00:04.674Z,75.44
2023-04-15T18:02:36.127Z,75.55
2023-04-15T18:05:07.429Z,77.76
2023-04-15T18:07:35.794Z,79.15
2023-04-15T18:10:03.769Z,80.34
2023-04-15T18:12:31.674Z,79.73
2023-04-15T18:14:59.641Z,80.28
2023-04-15T18:17:28.504Z,82.00
2023-04-15T18:19:56.471Z,82.06
2023-04-15T18:22:25.766Z,81.41
2023-04-15T18:24:54.661Z,81.94
2023-04-15T18:27:22.780Z,82.79
2023-04-15T18:29:51.926Z,84.40
2023-04-15T18:32:19.809Z,84.75
2023-04-15T18:34:47.741Z,82.69
2023-04-15T18:37:15.933Z,83.59
2023-04-15T18:39:45.702Z,83.85
2023-04-15T18:42:13.656Z,84.44
2023-04-15T18:44:41.579Z,84.16
2023-04-15T18:47:09.560Z,84.73
2023-04-15T18:49:37.717Z,84.52
2023-04-15T18:52:05.738Z,84.42
2023-04-15T18:54:33.733Z,85.03
2023-04-15T18:57:04.114Z,86.58
2023-04-15T18:59:32.531Z,86.43
2023-04-15T19:02:01.378Z,85.78
2023-04-15T19:04:29.933Z,85.47
2023-04-15T19:06:58.915Z,84.17
2023-04-15T19:09:27.296Z,84.42
2023-04-15T19:11:55.179Z,84.31
2023-04-15T19:14:24.716Z,84.11
2023-04-15T19:16:52.722Z,84.75
2023-04-15T19:19:20.810Z,84.19
2023-04-15T19:21:50.284Z,83.46
2023-04-15T19:24:18.722Z,84.01
2023-04-15T19:26:49.868Z,83.29
2023-04-15T19:29:18.394Z,84.08
2023-04-15T19:31:47.696Z,83.36
2023-04-15T19:34:17.848Z,83.77
2023-04-15T19:36:45.875Z,84.26
2023-04-15T19:39:14.632Z,84.32
2023-04-15T19:41:44.322Z,84.58
2023-04-15T19:44:12.936Z,85.13
2023-04-15T19:46:41.123Z,85.00
2023-04-15T19:49:10.711Z,84.38
2023-04-15T19:51:38.675Z,85.33
2023-04-15T19:54:06.686Z,85.46
2023-04-15T19:56:34.657Z,85.53
2023-04-15T19:59:02.777Z,85.88
2023-04-15T20:01:30.849Z,86.18
2023-04-15T20:04:00.233Z,86.35
2023-04-15T20:06:30.598Z,86.01
2023-04-15T20:08:59.027Z,86.50
2023-04-15T20:12:06.171Z,86.52
2023-04-15T20:14:17.711Z,86.21
2023-04-15T20:16:45.810Z,87.42
2023-04-15T20:19:13.980Z,87.12
2023-04-15T20:21:43.454Z,87.86
2023-04-15T20:24:11.457Z,87.89
2023-04-15T20:26:39.383Z,87.52
2023-04-15T20:29:07.527Z,89.30
2023-04-15T20:31:36.245Z,89.37
2023-04-15T20:34:04.262Z,91.31
2023-04-15T20:36:32.850Z,89.68
2023-04-15T20:39:02.152Z,90.22
2023-04-15T20:41:30.105Z,90.89
2023-04-15T20:43:58.063Z,91.66
2023-04-15T20:46:27.538Z,90.05
2023-04-15T20:48:56.208Z,89.53
2023-04-15T20:51:24.120Z,90.79
2023-04-15T20:53:52.383Z,89.05
2023-04-15T20:56:21.648Z,89.92
2023-04-15T20:58:49.556Z,89.45
2023-04-15T21:01:17.508Z,90.33
2023-04-15T21:03:45.622Z,88.57
2023-04-15T21:06:13.681Z,87.83
2023-04-15T21:08:41.614Z,87.96
2023-04-15T21:11:09.503Z,88.03
2023-04-15T21:13:38.883Z,88.37
2023-04-15T21:16:06.894Z,88.29
2023-04-15T21:18:34.837Z,89.40
2023-04-15T21:21:03.504Z,89.30
2023-04-15T21:23:31.809Z,88.72
2023-04-15T21:26:00.214Z,89.43
2023-04-15T21:28:29.909Z,87.56
2023-04-15T21:30:59.283Z,89.38
2023-04-15T21:33:27.709Z,89.29
2023-04-15T21:35:55.880Z,90.17
2023-04-15T21:38:23.769Z,91.99
2023-04-15T21:40:52.689Z,92.77
2023-04-15T21:43:21.676Z,94.65
2023-04-15T21:46:21.016Z,94.32
2023-04-15T21:48:38.865Z,93.76
2023-04-15T21:51:12.657Z,96.31
2023-04-15T21:53:40.770Z,97.36
2023-04-15T21:56:09.558Z,97.88
2023-04-15T21:58:37.756Z,99.28
2023-04-15T22:01:06.048Z,91.16
2023-04-15T22:03:35.329Z,91.93
2023-04-15T22:06:05.178Z,92.00
2023-04-15T22:08:38.518Z,94.45
2023-04-15T22:11:09.590Z,95.09
2023-04-15T22:13:37.761Z,97.38
2023-04-15T22:16:05.909Z,99.61
2023-04-15T22:18:33.916Z,99.82
2023-04-15T22:21:02.615Z,100.00
2023-04-15T22:23:31.916Z,100.00
2023-04-15T22:26:00.872Z,100.00
2023-04-15T22:28:28.861Z,100.00
2023-04-15T22:30:58.183Z,100.00
2023-04-15T22:33:26.423Z,100.00
2023-04-15T22:35:54.347Z,100.00
2023-04-15T22:38:22.275Z,100.00
2023-04-15T22:40:53.897Z,100.00
2023-04-15T22:43:21.875Z,100.00
2023-04-15T22:45:51.655Z,100.00
2023-04-15T22:48:19.898Z,100.00
2023-04-15T22:50:47.831Z,100.00
2023-04-15T22:53:16.881Z,100.00
2023-04-15T22:55:46.726Z,100.00
2023-04-15T22:58:17.110Z,100.00
2023-04-15T23:00:45.152Z,100.00
2023-04-15T23:03:13.309Z,100.00
2023-04-15T23:05:41.601Z,100.00
2023-04-15T23:08:09.852Z,100.00
2023-04-15T23:10:40.027Z,100.00
2023-04-15T23:13:07.921Z,100.00
2023-04-15T23:15:37.243Z,100.00
2023-04-15T23:18:05.231Z,100.00
2023-04-15T23:20:33.270Z,100.00
2023-04-15T23:23:01.126Z,100.00
2023-04-15T23:25:29.106Z,100.00
2023-04-15T23:27:57.011Z,100.00
2023-04-15T23:30:24.927Z,100.00
2023-04-15T23:32:54.241Z,100.00
2023-04-15T23:35:22.313Z,100.00
2023-04-15T23:37:50.226Z,100.00
2023-04-15T23:40:18.338Z,100.00
2023-04-15T23:42:46.404Z,100.00
2023-04-15T23:45:14.715Z,100.00
2023-04-15T23:47:42.910Z,100.00
2023-04-15T23:50:12.554Z,100.00
2023-04-15T23:52:40.508Z,100.00
2023-04-15T23:55:09.731Z,100.00
2023-04-15T23:57:37.677Z,100.00
